sensor_id;sensor_type;location;lat;lon;timestamp;pressure;altitude;pressure_sealevel;temperature;humidity
37202;BME280;37799;52.390;6.136;2022-07-23T00:01:25;101923.78;;;13.32;100.00
37202;BME280;37799;52.390;6.136;2022-07-23T00:03:52;101918.72;;;13.24;100.00
37202;BME280;37799;52.390;6.136;2022-07-23T00:06:19;101923.94;;;13.23;100.00
37202;BME280;37799;52.390;6.136;2022-07-23T00:08:44;101925.66;;;13.24;100.00
37202;BME280;37799;52.390;6.136;2022-07-23T00:11:09;101923.09;;;13.22;100.00
37202;BME280;37799;52.390;6.136;2022-07-23T00:13:35;101913.63;;;13.17;100.00
37202;BME280;37799;52.390;6.136;2022-07-23T00:16:00;101922.31;;;13.17;100.00
37202;BME280;37799;52.390;6.136;2022-07-23T00:18:25;101917.22;;;13.10;100.00
37202;BME280;37799;52.390;6.136;2022-07-23T00:20:51;101913.03;;;13.04;100.00
37202;BME280;37799;52.390;6.136;2022-07-23T00:23:16;101904.44;;;12.99;100.00
37202;BME280;37799;52.390;6.136;2022-07-23T00:25:41;101902.72;;;12.98;100.00
37202;BME280;37799;52.390;6.136;2022-07-23T00:28:06;101902.00;;;12.91;100.00
37202;BME280;37799;52.390;6.136;2022-07-23T00:30:32;101907.19;;;12.91;100.00
37202;BME280;37799;52.390;6.136;2022-07-23T00:32:59;101905.63;;;12.81;100.00
37202;BME280;37799;52.390;6.136;2022-07-23T00:35:27;101904.00;;;12.76;100.00
37202;BME280;37799;52.390;6.136;2022-07-23T00:37:53;101906.69;;;12.71;100.00
37202;BME280;37799;52.390;6.136;2022-07-23T00:40:19;101906.81;;;12.65;100.00
37202;BME280;37799;52.390;6.136;2022-07-23T00:42:44;101899.91;;;12.62;100.00
37202;BME280;37799;52.390;6.136;2022-07-23T00:45:10;101896.50;;;12.59;100.00
37202;BME280;37799;52.390;6.136;2022-07-23T00:47:36;101902.53;;;12.61;100.00
37202;BME280;37799;52.390;6.136;2022-07-23T00:50:03;101894.88;;;12.53;100.00
37202;BME280;37799;52.390;6.136;2022-07-23T00:52:29;101898.41;;;12.51;100.00
37202;BME280;37799;52.390;6.136;2022-07-23T00:54:54;101893.25;;;12.46;100.00
37202;BME280;37799;52.390;6.136;2022-07-23T00:57:21;101894.16;;;12.44;100.00
37202;BME280;37799;52.390;6.136;2022-07-23T00:59:47;101899.41;;;12.40;100.00
37202;BME280;37799;52.390;6.136;2022-07-23T01:02:12;101895.13;;;12.38;100.00
37202;BME280;37799;52.390;6.136;2022-07-23T01:04:37;101882.16;;;12.36;100.00
37202;BME280;37799;52.390;6.136;2022-07-23T01:07:03;101885.69;;;12.32;100.00
37202;BME280;37799;52.390;6.136;2022-07-23T01:09:29;101878.78;;;12.31;100.00
37202;BME280;37799;52.390;6.136;2022-07-23T01:11:54;101891.84;;;12.28;100.00
37202;BME280;37799;52.390;6.136;2022-07-23T01:14:20;101890.16;;;12.23;100.00
37202;BME280;37799;52.390;6.136;2022-07-23T01:16:47;101882.41;;;12.21;100.00
37202;BME280;37799;52.390;6.136;2022-07-23T01:19:14;101876.41;;;12.18;100.00
37202;BME280;37799;52.390;6.136;2022-07-23T01:21:42;101880.69;;;12.20;100.00
37202;BME280;37799;52.390;6.136;2022-07-23T01:24:09;101876.38;;;12.19;100.00
37202;BME280;37799;52.390;6.136;2022-07-23T01:26:35;101873.84;;;12.16;100.00
37202;BME280;37799;52.390;6.136;2022-07-23T01:29:01;101867.81;;;12.14;100.00
37202;BME280;37799;52.390;6.136;2022-07-23T01:31:27;101873.94;;;12.10;100.00
37202;BME280;37799;52.390;6.136;2022-07-23T01:33:53;101872.22;;;12.09;100.00
37202;BME280;37799;52.390;6.136;2022-07-23T01:36:18;101870.50;;;12.08;100.00
37202;BME280;37799;52.390;6.136;2022-07-23T01:38:43;101870.56;;;12.05;100.00
37202;BME280;37799;52.390;6.136;2022-07-23T01:41:09;101863.72;;;12.01;100.00
37202;BME280;37799;52.390;6.136;2022-07-23T01:43:35;101862.03;;;11.98;100.00
37202;BME280;37799;52.390;6.136;2022-07-23T01:46:00;101868.09;;;11.96;100.00
37202;BME280;37799;52.390;6.136;2022-07-23T01:48:25;101871.63;;;11.92;100.00
37202;BME280;37799;52.390;6.136;2022-07-23T01:50:51;101869.06;;;11.90;100.00
37202;BME280;37799;52.390;6.136;2022-07-23T01:53:16;101867.41;;;11.86;100.00
37202;BME280;37799;52.390;6.136;2022-07-23T01:55:41;101860.50;;;11.84;100.00
37202;BME280;37799;52.390;6.136;2022-07-23T01:58:07;101851.81;;;11.85;100.00
37202;BME280;37799;52.390;6.136;2022-07-23T02:00:32;101861.31;;;11.87;100.00
37202;BME280;37799;52.390;6.136;2022-07-23T02:02:58;101863.06;;;11.87;100.00
37202;BME280;37799;52.390;6.136;2022-07-23T02:05:24;101864.81;;;11.86;100.00
37202;BME280;37799;52.390;6.136;2022-07-23T02:07:50;101861.38;;;11.82;100.00
37202;BME280;37799;52.390;6.136;2022-07-23T02:10:15;101858.78;;;11.82;100.00
37202;BME280;37799;52.390;6.136;2022-07-23T02:12:40;101863.13;;;11.82;100.00
37202;BME280;37799;52.390;6.136;2022-07-23T02:15:06;101857.09;;;11.80;100.00
37202;BME280;37799;52.390;6.136;2022-07-23T02:17:32;101848.47;;;11.76;100.00
37202;BME280;37799;52.390;6.136;2022-07-23T02:19:57;101855.41;;;11.76;100.00
37202;BME280;37799;52.390;6.136;2022-07-23T02:22:22;101856.31;;;11.73;100.00
37202;BME280;37799;52.390;6.136;2022-07-23T02:24:47;101858.09;;;11.68;100.00
37202;BME280;37799;52.390;6.136;2022-07-23T02:27:13;101857.22;;;11.68;100.00
37202;BME280;37799;52.390;6.136;2022-07-23T02:29:38;101854.72;;;11.63;100.00
37202;BME280;37799;52.390;6.136;2022-07-23T02:32:03;101856.47;;;11.61;100.00
37202;BME280;37799;52.390;6.136;2022-07-23T02:34:29;101861.69;;;11.58;100.00
37202;BME280;37799;52.390;6.136;2022-07-23T02:36:54;101860.84;;;11.56;100.00
37202;BME280;37799;52.390;6.136;2022-07-23T02:39:19;101860.00;;;11.56;100.00
37202;BME280;37799;52.390;6.136;2022-07-23T02:41:44;101857.44;;;11.54;100.00
37202;BME280;37799;52.390;6.136;2022-07-23T02:44:10;101857.44;;;11.52;100.00
37202;BME280;37799;52.390;6.136;2022-07-23T02:46:35;101850.56;;;11.50;100.00
37202;BME280;37799;52.390;6.136;2022-07-23T02:49:00;101847.97;;;11.50;100.00
37202;BME280;37799;52.390;6.136;2022-07-23T02:51:25;101860.06;;;11.51;100.00
37202;BME280;37799;52.390;6.136;2022-07-23T02:53:51;101857.53;;;11.45;100.00
37202;BME280;37799;52.390;6.136;2022-07-23T02:56:16;101862.78;;;11.42;100.00
37202;BME280;37799;52.390;6.136;2022-07-23T02:58:41;101858.47;;;11.41;100.00
37202;BME280;37799;52.390;6.136;2022-07-23T03:01:07;101870.59;;;11.39;100.00
37202;BME280;37799;52.390;6.136;2022-07-23T03:03:32;101868.91;;;11.36;100.00
37202;BME280;37799;52.390;6.136;2022-07-23T03:05:58;101870.66;;;11.36;100.00
37202;BME280;37799;52.390;6.136;2022-07-23T03:08:23;101868.03;;;11.37;100.00
37202;BME280;37799;52.390;6.136;2022-07-23T03:10:49;101868.06;;;11.36;100.00
37202;BME280;37799;52.390;6.136;2022-07-23T03:13:14;101869.81;;;11.32;100.00
37202;BME280;37799;52.390;6.136;2022-07-23T03:15:39;101871.53;;;11.32;100.00
37202;BME280;37799;52.390;6.136;2022-07-23T03:18:05;101867.31;;;11.26;100.00
37202;BME280;37799;52.390;6.136;2022-07-23T03:20:30;101871.63;;;11.26;100.00
37202;BME280;37799;52.390;6.136;2022-07-23T03:22:55;101875.09;;;11.25;100.00
37202;BME280;37799;52.390;6.136;2022-07-23T03:25:20;101865.66;;;11.20;100.00
37202;BME280;37799;52.390;6.136;2022-07-23T03:27:46;101862.19;;;11.18;100.00
37202;BME280;37799;52.390;6.136;2022-07-23T03:30:11;101861.34;;;11.18;100.00
37202;BME280;37799;52.390;6.136;2022-07-23T03:32:37;101875.09;;;11.25;100.00
37202;BME280;37799;52.390;6.136;2022-07-23T03:35:03;101878.41;;;11.37;100.00
37202;BME280;37799;52.390;6.136;2022-07-23T03:37:29;101875.00;;;11.31;100.00
37202;BME280;37799;52.390;6.136;2022-07-23T03:39:54;101874.16;;;11.30;100.00
37202;BME280;37799;52.390;6.136;2022-07-23T03:42:19;101881.97;;;11.27;100.00
37202;BME280;37799;52.390;6.136;2022-07-23T03:44:44;101882.84;;;11.28;100.00
37202;BME280;37799;52.390;6.136;2022-07-23T03:47:10;101880.28;;;11.25;100.00
37202;BME280;37799;52.390;6.136;2022-07-23T03:49:35;101885.53;;;11.21;100.00
37202;BME280;37799;52.390;6.136;2022-07-23T03:52:01;101876.88;;;11.22;100.00
37202;BME280;37799;52.390;6.136;2022-07-23T03:54:26;101877.75;;;11.20;100.00
37202;BME280;37799;52.390;6.136;2022-07-23T03:56:51;101877.75;;;11.18;100.00
37202;BME280;37799;52.390;6.136;2022-07-23T03:59:16;101875.16;;;11.18;100.00
37202;BME280;37799;52.390;6.136;2022-07-23T04:01:42;101879.44;;;11.24;100.00
37202;BME280;37799;52.390;6.136;2022-07-23T04:04:07;101878.44;;;11.33;100.00
37202;BME280;37799;52.390;6.136;2022-07-23T04:06:34;101877.59;;;11.34;100.00
37202;BME280;37799;52.390;6.136;2022-07-23T04:08:59;101879.19;;;11.42;100.00
37202;BME280;37799;52.390;6.136;2022-07-23T04:11:24;101883.47;;;11.46;100.00
37202;BME280;37799;52.390;6.136;2022-07-23T04:13:49;101883.50;;;11.43;100.00
37202;BME280;37799;52.390;6.136;2022-07-23T04:16:15;101888.72;;;11.42;100.00
37202;BME280;37799;52.390;6.136;2022-07-23T04:18:40;101880.13;;;11.37;100.00
37202;BME280;37799;52.390;6.136;2022-07-23T04:21:05;101883.56;;;11.39;100.00
37202;BME280;37799;52.390;6.136;2022-07-23T04:23:31;101888.66;;;11.45;100.00
37202;BME280;37799;52.390;6.136;2022-07-23T04:25:56;101885.97;;;11.54;100.00
37202;BME280;37799;52.390;6.136;2022-07-23T04:28:21;101879.72;;;11.67;100.00
37202;BME280;37799;52.390;6.136;2022-07-23T04:30:47;101869.16;;;11.82;100.00
37202;BME280;37799;52.390;6.136;2022-07-23T04:33:12;101872.41;;;11.97;100.00
37202;BME280;37799;52.390;6.136;2022-07-23T04:35:38;101879.13;;;12.10;100.00
37202;BME280;37799;52.390;6.136;2022-07-23T04:38:03;101879.75;;;12.26;100.00
37202;BME280;37799;52.390;6.136;2022-07-23T04:40:29;101879.50;;;12.41;100.00
37202;BME280;37799;52.390;6.136;2022-07-23T04:42:55;101881.91;;;12.52;100.00
37202;BME280;37799;52.390;6.136;2022-07-23T04:45:20;101886.84;;;12.67;100.00
37202;BME280;37799;52.390;6.136;2022-07-23T04:47:45;101883.13;;;12.80;100.00
37202;BME280;37799;52.390;6.136;2022-07-23T04:50:11;101872.56;;;12.89;100.00
37202;BME280;37799;52.390;6.136;2022-07-23T04:52:36;101870.72;;;12.94;100.00
37202;BME280;37799;52.390;6.136;2022-07-23T04:55:02;101878.19;;;13.11;100.00
37202;BME280;37799;52.390;6.136;2022-07-23T04:57:28;101877.84;;;13.31;100.00
37202;BME280;37799;52.390;6.136;2022-07-23T04:59:53;101889.59;;;13.49;100.00
37202;BME280;37799;52.390;6.136;2022-07-23T05:02:18;101883.28;;;13.61;100.00
37202;BME280;37799;52.390;6.136;2022-07-23T05:04:44;101883.00;;;13.73;100.00
37202;BME280;37799;52.390;6.136;2022-07-23T05:07:09;101887.16;;;13.81;100.00
37202;BME280;37799;52.390;6.136;2022-07-23T05:09:34;101890.34;;;13.93;100.00
37202;BME280;37799;52.390;6.136;2022-07-23T05:12:00;101894.50;;;14.01;100.00
37202;BME280;37799;52.390;6.136;2022-07-23T05:14:25;101881.41;;;14.04;100.00
37202;BME280;37799;52.390;6.136;2022-07-23T05:16:50;101887.56;;;14.00;100.00
37202;BME280;37799;52.390;6.136;2022-07-23T05:19:16;101890.25;;;13.97;100.00
37202;BME280;37799;52.390;6.136;2022-07-23T05:21:41;101894.38;;;14.07;100.00
37202;BME280;37799;52.390;6.136;2022-07-23T05:24:06;101906.50;;;14.08;100.00
37202;BME280;37799;52.390;6.136;2022-07-23T05:26:32;101903.13;;;14.03;100.00
37202;BME280;37799;52.390;6.136;2022-07-23T05:28:57;101912.59;;;14.06;100.00
37202;BME280;37799;52.390;6.136;2022-07-23T05:31:22;101909.84;;;14.13;100.00
37202;BME280;37799;52.390;6.136;2022-07-23T05:33:48;101920.00;;;14.24;100.00
37202;BME280;37799;52.390;6.136;2022-07-23T05:36:13;101919.41;;;14.50;100.00
37202;BME280;37799;52.390;6.136;2022-07-23T05:38:39;101921.28;;;15.10;100.00
37202;BME280;37799;52.390;6.136;2022-07-23T05:41:04;101926.13;;;15.55;100.00
37202;BME280;37799;52.390;6.136;2022-07-23T05:43:29;101924.06;;;16.22;100.00
37202;BME280;37799;52.390;6.136;2022-07-23T05:45:55;101923.72;;;17.10;100.00
37202;BME280;37799;52.390;6.136;2022-07-23T05:48:20;101943.22;;;17.74;100.00
37202;BME280;37799;52.390;6.136;2022-07-23T05:50:47;101940.00;;;18.33;100.00
37202;BME280;37799;52.390;6.136;2022-07-23T05:53:12;101942.66;;;18.95;100.00
37202;BME280;37799;52.390;6.136;2022-07-23T05:55:38;101949.59;;;19.56;100.00
37202;BME280;37799;52.390;6.136;2022-07-23T05:58:03;101945.50;;;20.24;100.00
37202;BME280;37799;52.390;6.136;2022-07-23T06:00:29;101954.78;;;20.84;100.00
37202;BME280;37799;52.390;6.136;2022-07-23T06:02:54;101952.47;;;21.29;100.00
37202;BME280;37799;52.390;6.136;2022-07-23T06:05:19;101965.66;;;21.29;100.00
37202;BME280;37799;52.390;6.136;2022-07-23T06:07:45;101956.09;;;21.59;100.00
37202;BME280;37799;52.390;6.136;2022-07-23T06:10:10;101953.22;;;21.95;100.00
37202;BME280;37799;52.390;6.136;2022-07-23T06:12:36;101965.63;;;22.25;100.00
37202;BME280;37799;52.390;6.136;2022-07-23T06:15:01;101961.91;;;22.59;100.00
37202;BME280;37799;52.390;6.136;2022-07-23T06:17:27;101959.09;;;22.62;94.24
37202;BME280;37799;52.390;6.136;2022-07-23T06:19:53;101958.00;;;22.80;93.19
37202;BME280;37799;52.390;6.136;2022-07-23T06:22:19;101962.59;;;22.92;89.81
37202;BME280;37799;52.390;6.136;2022-07-23T06:24:44;101966.19;;;23.20;88.80
37202;BME280;37799;52.390;6.136;2022-07-23T06:27:10;101965.34;;;22.75;88.16
37202;BME280;37799;52.390;6.136;2022-07-23T06:29:35;101962.56;;;22.32;89.88
37202;BME280;37799;52.390;6.136;2022-07-23T06:32:00;101960.88;;;21.84;94.99
37202;BME280;37799;52.390;6.136;2022-07-23T06:34:26;101963.63;;;21.16;96.15
37202;BME280;37799;52.390;6.136;2022-07-23T06:36:51;101965.34;;;20.83;100.00
37202;BME280;37799;52.390;6.136;2022-07-23T06:39:16;101968.94;;;20.28;100.00
37202;BME280;37799;52.390;6.136;2022-07-23T06:41:42;101963.72;;;20.10;100.00
37202;BME280;37799;52.390;6.136;2022-07-23T06:44:07;101972.53;;;20.09;100.00
37202;BME280;37799;52.390;6.136;2022-07-23T06:46:32;101964.91;;;20.02;100.00
37202;BME280;37799;52.390;6.136;2022-07-23T06:48:58;101977.47;;;20.15;100.00
37202;BME280;37799;52.390;6.136;2022-07-23T06:51:24;101969.94;;;20.45;100.00
37202;BME280;37799;52.390;6.136;2022-07-23T06:53:49;101971.97;;;21.25;100.00
37202;BME280;37799;52.390;6.136;2022-07-23T06:56:14;101981.56;;;21.43;100.00
37202;BME280;37799;52.390;6.136;2022-07-23T06:58:40;101980.09;;;21.86;99.00
37202;BME280;37799;52.390;6.136;2022-07-23T07:01:05;101991.47;;;21.87;95.67
37202;BME280;37799;52.390;6.136;2022-07-23T07:03:30;101998.41;;;21.89;96.35
37202;BME280;37799;52.390;6.136;2022-07-23T07:05:55;101999.44;;;22.18;94.58
37202;BME280;37799;52.390;6.136;2022-07-23T07:08:22;101987.78;;;22.06;92.81
37202;BME280;37799;52.390;6.136;2022-07-23T07:10:48;101993.97;;;21.90;93.92
37202;BME280;37799;52.390;6.136;2022-07-23T07:13:13;101991.16;;;21.93;96.59
37202;BME280;37799;52.390;6.136;2022-07-23T07:15:39;101997.81;;;22.31;94.61
37202;BME280;37799;52.390;6.136;2022-07-23T07:18:04;101991.75;;;22.75;89.48
37202;BME280;37799;52.390;6.136;2022-07-23T07:20:29;101992.22;;;23.54;86.16
37202;BME280;37799;52.390;6.136;2022-07-23T07:22:54;101996.72;;;24.09;82.80
37202;BME280;37799;52.390;6.136;2022-07-23T07:25:20;101994.34;;;24.46;78.63
37202;BME280;37799;52.390;6.136;2022-07-23T07:27:45;101979.50;;;24.96;78.77
37202;BME280;37799;52.390;6.136;2022-07-23T07:30:11;101984.28;;;25.54;75.19
37202;BME280;37799;52.390;6.136;2022-07-23T07:32:36;101990.31;;;25.56;72.52
37202;BME280;37799;52.390;6.136;2022-07-23T07:35:05;101996.56;;;25.68;72.02
37202;BME280;37799;52.390;6.136;2022-07-23T07:37:31;101998.09;;;25.34;72.50
37202;BME280;37799;52.390;6.136;2022-07-23T07:39:56;102009.22;;;25.01;73.52
37202;BME280;37799;52.390;6.136;2022-07-23T07:42:21;102004.88;;;24.60;74.82
37202;BME280;37799;52.390;6.136;2022-07-23T07:44:47;102008.69;;;24.56;76.24
37202;BME280;37799;52.390;6.136;2022-07-23T07:47:12;102011.19;;;24.45;77.63
37202;BME280;37799;52.390;6.136;2022-07-23T07:49:40;102009.53;;;24.57;75.88
37202;BME280;37799;52.390;6.136;2022-07-23T07:52:05;102001.06;;;25.04;74.84
37202;BME280;37799;52.390;6.136;2022-07-23T07:54:31;102007.34;;;24.63;73.55
37202;BME280;37799;52.390;6.136;2022-07-23T07:56:57;101995.06;;;24.35;75.78
37202;BME280;37799;52.390;6.136;2022-07-23T07:59:22;102009.19;;;24.88;73.45
37202;BME280;37799;52.390;6.136;2022-07-23T08:01:47;102011.97;;;25.38;70.97
37202;BME280;37799;52.390;6.136;2022-07-23T08:04:13;102012.25;;;25.84;71.27
37202;BME280;37799;52.390;6.136;2022-07-23T08:06:38;102021.66;;;26.37;68.27
37202;BME280;37799;52.390;6.136;2022-07-23T08:09:03;102023.09;;;26.17;64.89
37202;BME280;37799;52.390;6.136;2022-07-23T08:11:29;102014.00;;;25.34;65.36
37202;BME280;37799;52.390;6.136;2022-07-23T08:13:54;102021.59;;;24.48;67.86
37202;BME280;37799;52.390;6.136;2022-07-23T08:16:19;102019.66;;;23.68;72.20
37202;BME280;37799;52.390;6.136;2022-07-23T08:18:44;102019.72;;;24.22;70.76
37202;BME280;37799;52.390;6.136;2022-07-23T08:21:10;102019.34;;;24.82;69.29
37202;BME280;37799;52.390;6.136;2022-07-23T08:23:36;102026.59;;;25.81;65.85
37202;BME280;37799;52.390;6.136;2022-07-23T08:26:01;102025.88;;;26.40;63.54
37202;BME280;37799;52.390;6.136;2022-07-23T08:28:27;102039.28;;;26.02;59.40
37202;BME280;37799;52.390;6.136;2022-07-23T08:30:52;102040.94;;;26.15;61.57
37202;BME280;37799;52.390;6.136;2022-07-23T08:33:18;102036.34;;;25.68;63.86
37202;BME280;37799;52.390;6.136;2022-07-23T08:35:48;102045.09;;;24.80;64.64
37202;BME280;37799;52.390;6.136;2022-07-23T08:38:17;102054.25;;;24.61;70.68
37202;BME280;37799;52.390;6.136;2022-07-23T08:40:45;102043.00;;;24.58;66.48
37202;BME280;37799;52.390;6.136;2022-07-23T08:43:18;102038.78;;;24.14;70.36
37202;BME280;37799;52.390;6.136;2022-07-23T08:45:46;102040.34;;;23.75;68.23
37202;BME280;37799;52.390;6.136;2022-07-23T08:48:14;102036.88;;;23.31;70.71
37202;BME280;37799;52.390;6.136;2022-07-23T08:51:00;102043.41;;;23.39;72.54
37202;BME280;37799;52.390;6.136;2022-07-23T08:53:26;102042.22;;;23.01;71.77
37202;BME280;37799;52.390;6.136;2022-07-23T08:55:54;102034.69;;;23.09;75.03
37202;BME280;37799;52.390;6.136;2022-07-23T08:58:21;102029.53;;;22.91;72.78
37202;BME280;37799;52.390;6.136;2022-07-23T09:00:47;102026.13;;;22.89;75.88
37202;BME280;37799;52.390;6.136;2022-07-23T09:03:16;102031.88;;;23.12;79.07
37202;BME280;37799;52.390;6.136;2022-07-23T09:05:42;102033.31;;;23.32;77.35
37202;BME280;37799;52.390;6.136;2022-07-23T09:10:56;102030.78;;;23.00;76.22
37202;BME280;37799;52.390;6.136;2022-07-23T09:16:11;102026.41;;;23.43;75.76
37202;BME280;37799;52.390;6.136;2022-07-23T09:21:30;102031.91;;;23.40;74.98
37202;BME280;37799;52.390;6.136;2022-07-23T09:24:03;102039.59;;;23.73;76.22
37202;BME280;37799;52.390;6.136;2022-07-23T09:26:34;102039.84;;;23.97;71.36
37202;BME280;37799;52.390;6.136;2022-07-23T09:29:07;102044.69;;;24.32;73.61
37202;BME280;37799;52.390;6.136;2022-07-23T09:34:21;102046.28;;;24.88;67.00
37202;BME280;37799;52.390;6.136;2022-07-23T09:36:48;102040.97;;;24.88;67.03
37202;BME280;37799;52.390;6.136;2022-07-23T09:39:15;102042.63;;;24.23;69.25
37202;BME280;37799;52.390;6.136;2022-07-23T09:41:44;102045.72;;;23.60;70.91
37202;BME280;37799;52.390;6.136;2022-07-23T09:44:12;102036.63;;;23.49;72.95
37202;BME280;37799;52.390;6.136;2022-07-23T09:46:39;102041.16;;;23.47;74.13
37202;BME280;37799;52.390;6.136;2022-07-23T09:49:19;102043.78;;;23.19;78.21
37202;BME280;37799;52.390;6.136;2022-07-23T09:51:55;102046.47;;;23.90;71.61
37202;BME280;37799;52.390;6.136;2022-07-23T09:54:29;102034.44;;;25.07;70.18
37202;BME280;37799;52.390;6.136;2022-07-23T09:56:56;102032.88;;;25.29;65.58
37202;BME280;37799;52.390;6.136;2022-07-23T09:59:29;102038.47;;;25.38;64.39
37202;BME280;37799;52.390;6.136;2022-07-23T10:01:57;102041.84;;;25.65;63.19
37202;BME280;37799;52.390;6.136;2022-07-23T10:04:25;102036.94;;;26.10;61.40
37202;BME280;37799;52.390;6.136;2022-07-23T10:06:54;102033.50;;;26.68;57.46
37202;BME280;37799;52.390;6.136;2022-07-23T10:09:34;102040.09;;;27.22;54.08
37202;BME280;37799;52.390;6.136;2022-07-23T10:12:02;102037.53;;;27.20;55.72
37202;BME280;37799;52.390;6.136;2022-07-23T10:14:38;102038.13;;;27.13;55.79
37202;BME280;37799;52.390;6.136;2022-07-23T10:17:04;102049.03;;;26.86;54.37
37202;BME280;37799;52.390;6.136;2022-07-23T10:19:31;102035.59;;;26.76;55.75
37202;BME280;37799;52.390;6.136;2022-07-23T10:22:05;102049.84;;;27.10;56.89
37202;BME280;37799;52.390;6.136;2022-07-23T10:24:52;102045.03;;;27.26;54.00
37202;BME280;37799;52.390;6.136;2022-07-23T10:29:59;102042.34;;;27.04;56.91
37202;BME280;37799;52.390;6.136;2022-07-23T10:32:44;102036.09;;;27.27;56.64
37202;BME280;37799;52.390;6.136;2022-07-23T10:35:37;102038.84;;;27.15;54.84
37202;BME280;37799;52.390;6.136;2022-07-23T10:38:25;102047.81;;;27.25;56.03
37202;BME280;37799;52.390;6.136;2022-07-23T10:40:54;102042.47;;;27.02;53.79
37202;BME280;37799;52.390;6.136;2022-07-23T10:43:20;102044.44;;;26.88;55.67
37202;BME280;37799;52.390;6.136;2022-07-23T10:45:46;102044.19;;;26.56;57.57
37202;BME280;37799;52.390;6.136;2022-07-23T10:48:14;102043.47;;;26.17;61.88
37202;BME280;37799;52.390;6.136;2022-07-23T10:50:41;102045.53;;;26.01;58.85
37202;BME280;37799;52.390;6.136;2022-07-23T10:57:58;102027.94;;;26.24;59.78
37202;BME280;37799;52.390;6.136;2022-07-23T11:00:25;102025.78;;;26.77;57.54
37202;BME280;37799;52.390;6.136;2022-07-23T11:03:05;102026.00;;;26.97;55.04
37202;BME280;37799;52.390;6.136;2022-07-23T11:05:42;102026.31;;;26.93;57.50
37202;BME280;37799;52.390;6.136;2022-07-23T11:32:03;102032.19;;;28.85;52.42
37202;BME280;37799;52.390;6.136;2022-07-23T11:36:55;102026.31;;;29.54;47.87
37202;BME280;37799;52.390;6.136;2022-07-23T11:39:20;102032.81;;;28.77;50.26
37202;BME280;37799;52.390;6.136;2022-07-23T11:41:49;102031.16;;;27.90;52.55
37202;BME280;37799;52.390;6.136;2022-07-23T11:46:58;102021.34;;;27.57;52.21
37202;BME280;37799;52.390;6.136;2022-07-23T11:49:24;102022.94;;;27.71;53.27
37202;BME280;37799;52.390;6.136;2022-07-23T11:52:06;102025.34;;;27.85;52.23
37202;BME280;37799;52.390;6.136;2022-07-23T11:54:33;102022.69;;;27.96;53.47
37202;BME280;37799;52.390;6.136;2022-07-23T11:57:00;102019.50;;;28.13;52.11
37202;BME280;37799;52.390;6.136;2022-07-23T11:59:26;102022.81;;;28.38;52.82
37202;BME280;37799;52.390;6.136;2022-07-23T12:02:01;102018.72;;;29.28;51.42
37202;BME280;37799;52.390;6.136;2022-07-23T12:04:41;102020.06;;;28.60;49.34
37202;BME280;37799;52.390;6.136;2022-07-23T12:10:00;102022.13;;;28.36;52.09
37202;BME280;37799;52.390;6.136;2022-07-23T12:12:26;102022.22;;;27.80;53.79
37202;BME280;37799;52.390;6.136;2022-07-23T12:14:54;102022.81;;;27.61;52.15
37202;BME280;37799;52.390;6.136;2022-07-23T12:17:21;102014.22;;;27.24;54.61
37202;BME280;37799;52.390;6.136;2022-07-23T12:19:47;102022.13;;;28.36;52.11
37202;BME280;37799;52.390;6.136;2022-07-23T12:22:13;102009.00;;;28.97;51.79
37202;BME280;37799;52.390;6.136;2022-07-23T12:24:59;102015.06;;;29.29;47.75
37202;BME280;37799;52.390;6.136;2022-07-23T12:27:25;102021.94;;;29.93;45.89
37202;BME280;37799;52.390;6.136;2022-07-23T12:29:51;102023.31;;;30.37;44.81
37202;BME280;37799;52.390;6.136;2022-07-23T12:34:48;102020.59;;;30.18;43.62
37202;BME280;37799;52.390;6.136;2022-07-23T12:37:28;102006.34;;;29.88;44.60
37202;BME280;37799;52.390;6.136;2022-07-23T12:39:54;102014.66;;;29.55;45.21
37202;BME280;37799;52.390;6.136;2022-07-23T12:42:19;102019.06;;;29.14;48.69
37202;BME280;37799;52.390;6.136;2022-07-23T12:45:24;102016.41;;;29.75;47.96
37202;BME280;37799;52.390;6.136;2022-07-23T12:47:53;102010.94;;;29.46;45.99
37202;BME280;37799;52.390;6.136;2022-07-23T12:50:39;102012.94;;;28.82;48.84
37202;BME280;37799;52.390;6.136;2022-07-23T12:53:14;102015.78;;;28.05;51.63
37202;BME280;37799;52.390;6.136;2022-07-23T12:55:40;102010.38;;;27.50;48.41
37202;BME280;37799;52.390;6.136;2022-07-23T12:58:08;102011.09;;;27.63;50.61
37202;BME280;37799;52.390;6.136;2022-07-23T13:00:56;102004.06;;;27.62;50.77
37202;BME280;37799;52.390;6.136;2022-07-23T13:03:41;102007.19;;;28.01;52.56
37202;BME280;37799;52.390;6.136;2022-07-23T13:06:09;102007.41;;;28.09;48.57
37202;BME280;37799;52.390;6.136;2022-07-23T13:08:37;102008.78;;;27.92;50.61
37202;BME280;37799;52.390;6.136;2022-07-23T13:11:04;102002.59;;;27.58;51.63
37202;BME280;37799;52.390;6.136;2022-07-23T13:13:32;102004.06;;;27.29;51.71
37202;BME280;37799;52.390;6.136;2022-07-23T13:15:58;102000.38;;;26.96;53.42
37202;BME280;37799;52.390;6.136;2022-07-23T13:18:24;102002.59;;;26.79;55.53
37202;BME280;37799;52.390;6.136;2022-07-23T13:20:51;102006.00;;;26.45;54.97
37202;BME280;37799;52.390;6.136;2022-07-23T13:23:17;102013.03;;;26.34;55.07
37202;BME280;37799;52.390;6.136;2022-07-23T13:25:43;102005.97;;;25.98;56.29
37202;BME280;37799;52.390;6.136;2022-07-23T13:28:09;102010.13;;;25.89;60.54
37202;BME280;37799;52.390;6.136;2022-07-23T13:30:34;101999.66;;;26.11;57.43
37202;BME280;37799;52.390;6.136;2022-07-23T13:33:02;102000.84;;;26.07;58.05
37202;BME280;37799;52.390;6.136;2022-07-23T13:35:28;101998.50;;;26.03;55.17
37202;BME280;37799;52.390;6.136;2022-07-23T13:37:53;101998.53;;;25.90;58.85